createdAt,value
2023-06-17T00:00:07.823Z,12.45
2023-06-17T00:01:07.830Z,12.45
2023-06-17T00:02:07.831Z,12.43
2023-06-17T00:03:07.910Z,12.49
2023-06-17T00:04:07.928Z,12.47
2023-06-17T00:05:07.793Z,12.46
2023-06-17T00:06:07.777Z,12.40
2023-06-17T00:07:07.794Z,12.49
2023-06-17T00:08:07.757Z,12.50
2023-06-17T00:09:07.761Z,12.54
2023-06-17T00:10:07.776Z,12.53
2023-06-17T00:11:07.769Z,12.53
2023-06-17T00:12:07.763Z,12.61
2023-06-17T00:13:07.724Z,12.61
2023-06-17T00:14:07.711Z,12.61
2023-06-17T00:15:07.711Z,12.57
2023-06-17T00:16:07.730Z,12.53
2023-06-17T00:17:07.692Z,12.58
2023-06-17T00:18:07.706Z,12.54
2023-06-17T00:19:07.677Z,12.49
2023-06-17T00:20:07.695Z,12.49
2023-06-17T00:21:07.690Z,12.53
2023-06-17T00:22:07.653Z,12.55
2023-06-17T00:23:07.643Z,12.57
2023-06-17T00:24:07.676Z,12.49
2023-06-17T00:25:07.678Z,12.53
2023-06-17T00:26:07.634Z,12.53
2023-06-17T00:27:07.616Z,12.50
2023-06-17T00:28:07.607Z,12.45
2023-06-17T00:29:07.605Z,12.36
2023-06-17T00:30:07.613Z,12.37
2023-06-17T00:31:07.577Z,12.37
2023-06-17T00:32:08.580Z,12.28
2023-06-17T00:33:07.609Z,12.31
2023-06-17T00:34:07.564Z,12.24
2023-06-17T00:35:07.606Z,12.31
2023-06-17T00:36:07.579Z,12.20
2023-06-17T00:37:07.572Z,12.18
2023-06-17T00:38:07.559Z,12.20
2023-06-17T00:39:07.556Z,12.25
2023-06-17T00:40:07.553Z,12.04
2023-06-17T00:41:07.542Z,12.13
2023-06-17T00:42:07.504Z,12.00
2023-06-17T00:43:07.496Z,12.10
2023-06-17T00:44:07.503Z,12.09
2023-06-17T00:45:07.468Z,12.03
2023-06-17T00:46:07.513Z,12.00
2023-06-17T00:47:07.459Z,11.97
2023-06-17T00:48:07.479Z,11.95
2023-06-17T00:49:07.464Z,11.99
2023-06-17T00:50:07.432Z,12.00
2023-06-17T00:51:07.426Z,11.88
2023-06-17T00:52:23.703Z,11.81
2023-06-17T00:53:09.439Z,11.87
2023-06-17T00:54:07.425Z,11.86
2023-06-17T00:55:07.393Z,11.87
2023-06-17T00:56:07.382Z,11.91
2023-06-17T00:57:07.385Z,11.84
2023-06-17T00:58:07.405Z,11.81
2023-06-17T00:59:07.387Z,11.80
2023-06-17T01:00:07.346Z,11.87
2023-06-17T01:01:07.344Z,11.84
2023-06-17T01:02:07.331Z,11.88
2023-06-17T01:03:07.386Z,11.81
2023-06-17T01:04:07.344Z,11.87
2023-06-17T01:05:07.315Z,11.91
2023-06-17T01:06:07.309Z,11.84
2023-06-17T01:07:07.301Z,11.97
2023-06-17T01:08:07.321Z,11.91
2023-06-17T01:09:07.287Z,11.88
2023-06-17T01:10:07.276Z,11.94
2023-06-17T01:11:07.277Z,11.86
2023-06-17T01:12:07.280Z,11.90
2023-06-17T01:13:07.314Z,11.86
2023-06-17T01:14:07.281Z,11.90
2023-06-17T01:15:07.246Z,11.81
2023-06-17T01:16:07.288Z,11.73
2023-06-17T01:17:07.269Z,11.66
2023-06-17T01:18:07.248Z,11.65
2023-06-17T01:19:07.203Z,11.66
2023-06-17T01:20:07.209Z,11.65
2023-06-17T01:21:07.212Z,11.62
2023-06-17T01:22:07.216Z,11.51
2023-06-17T01:23:07.171Z,11.59
2023-06-17T01:24:07.219Z,11.62
2023-06-17T01:25:07.163Z,11.57
2023-06-17T01:26:07.151Z,11.62
2023-06-17T01:27:07.169Z,11.65
2023-06-17T01:28:07.141Z,11.52
2023-06-17T01:29:07.129Z,11.47
2023-06-17T01:30:07.121Z,11.55
2023-06-17T01:31:07.112Z,11.60
2023-06-17T01:32:07.136Z,11.44
2023-06-17T01:33:07.173Z,11.47
2023-06-17T01:34:07.098Z,11.44
2023-06-17T01:35:07.121Z,11.51
2023-06-17T01:36:07.134Z,11.54
2023-06-17T01:37:07.100Z,11.48
2023-06-17T01:38:07.062Z,11.48
2023-06-17T01:39:07.057Z,11.54
2023-06-17T01:40:07.052Z,11.55
2023-06-17T01:41:07.054Z,11.60
2023-06-17T01:42:08.046Z,11.57
2023-06-17T01:43:07.020Z,11.48
2023-06-17T01:44:07.018Z,11.52
2023-06-17T01:45:07.008Z,11.50
2023-06-17T01:46:07.057Z,11.48
2023-06-17T01:47:06.993Z,11.45
2023-06-17T01:48:07.075Z,11.50
2023-06-17T01:49:06.983Z,11.41
2023-06-17T01:50:06.988Z,11.50
2023-06-17T01:51:07.006Z,11.43
2023-06-17T01:52:06.954Z,11.47
2023-06-17T01:53:06.941Z,11.30
2023-06-17T01:54:06.949Z,11.30
2023-06-17T01:55:06.946Z,11.23
2023-06-17T01:56:06.954Z,11.26
2023-06-17T01:57:06.942Z,11.33
2023-06-17T01:58:06.907Z,11.32
2023-06-17T01:59:06.890Z,11.18
2023-06-17T02:00:06.908Z,11.22
2023-06-17T02:01:06.881Z,11.23
2023-06-17T02:02:06.866Z,11.23
2023-06-17T02:03:06.912Z,11.18
2023-06-17T02:04:06.878Z,11.22
2023-06-17T02:05:06.876Z,11.17
2023-06-17T02:06:06.843Z,11.18
2023-06-17T02:07:06.829Z,11.18
2023-06-17T02:08:07.014Z,11.10
2023-06-17T02:09:06.836Z,11.12
2023-06-17T02:10:06.833Z,11.04
2023-06-17T02:11:06.821Z,10.99
2023-06-17T02:12:06.793Z,11.10
2023-06-17T02:13:06.782Z,11.00
2023-06-17T02:14:06.824Z,11.12
2023-06-17T02:15:06.771Z,11.05
2023-06-17T02:16:06.839Z,11.04
2023-06-17T02:17:06.750Z,10.94
2023-06-17T02:18:06.762Z,11.05
2023-06-17T02:19:06.764Z,11.00
2023-06-17T02:20:06.725Z,11.08
2023-06-17T02:21:06.716Z,11.14
2023-06-17T02:22:06.721Z,11.05
2023-06-17T02:23:06.743Z,11.07
2023-06-17T02:24:06.784Z,11.04
2023-06-17T02:25:06.690Z,11.05
2023-06-17T02:26:06.681Z,11.11
2023-06-17T02:27:06.682Z,10.93
2023-06-17T02:28:06.666Z,10.97
2023-06-17T02:29:06.675Z,11.04
2023-06-17T02:30:06.643Z,10.93
2023-06-17T02:31:06.691Z,10.97
2023-06-17T02:32:08.393Z,11.00
2023-06-17T02:33:06.710Z,10.97
2023-06-17T02:34:06.641Z,10.86
2023-06-17T02:35:06.611Z,10.96
2023-06-17T02:36:06.621Z,10.96
2023-06-17T02:37:06.595Z,10.97
2023-06-17T02:38:06.615Z,10.96
2023-06-17T02:39:06.608Z,10.96
2023-06-17T02:40:06.573Z,10.81
2023-06-17T02:41:06.567Z,10.90
2023-06-17T02:42:06.562Z,10.89
2023-06-17T02:43:06.587Z,10.76
2023-06-17T02:44:06.545Z,10.87
2023-06-17T02:45:06.540Z,10.78
2023-06-17T02:46:06.530Z,10.76
2023-06-17T02:47:06.588Z,10.81
2023-06-17T02:48:06.580Z,10.81
2023-06-17T02:49:06.515Z,10.78
2023-06-17T02:50:06.505Z,10.79
2023-06-17T02:51:06.491Z,10.76
2023-06-17T02:52:06.515Z,10.76
2023-06-17T02:53:06.504Z,10.78
2023-06-17T02:54:06.462Z,10.76
2023-06-17T02:55:06.465Z,10.61
2023-06-17T02:56:06.456Z,10.67
2023-06-17T02:57:06.469Z,10.61
2023-06-17T02:58:06.437Z,10.64
2023-06-17T02:59:06.436Z,10.64
2023-06-17T03:00:06.421Z,10.57
2023-06-17T03:01:06.436Z,10.67
2023-06-17T03:02:06.530Z,10.60
2023-06-17T03:03:06.432Z,10.63
2023-06-17T03:04:06.389Z,10.49
2023-06-17T03:05:06.383Z,10.68
2023-06-17T03:06:06.374Z,10.64
2023-06-17T03:07:06.407Z,10.69
2023-06-17T03:08:06.357Z,10.63
2023-06-17T03:09:06.350Z,10.60
2023-06-17T03:10:06.338Z,10.53
2023-06-17T03:11:06.342Z,10.59
2023-06-17T03:12:06.350Z,10.49
2023-06-17T03:13:06.327Z,10.61
2023-06-17T03:14:06.316Z,10.57
2023-06-17T03:15:06.310Z,10.51
2023-06-17T03:16:06.296Z,10.63
2023-06-17T03:17:06.449Z,10.64
2023-06-17T03:18:07.312Z,10.64
2023-06-17T03:19:06.276Z,10.48
2023-06-17T03:20:06.272Z,10.44
2023-06-17T03:21:06.258Z,10.46
2023-06-17T03:22:06.280Z,10.53
2023-06-17T03:23:06.249Z,10.49
2023-06-17T03:24:06.275Z,10.48
2023-06-17T03:25:06.228Z,10.46
2023-06-17T03:26:06.284Z,10.51
2023-06-17T03:27:06.217Z,10.61
2023-06-17T03:28:06.211Z,10.79
2023-06-17T03:29:06.211Z,10.87
2023-06-17T03:30:06.193Z,11.11
2023-06-17T03:31:06.247Z,11.07
2023-06-17T03:32:06.187Z,11.35
2023-06-17T03:33:06.186Z,11.55
2023-06-17T03:34:06.169Z,11.78
2023-06-17T03:35:06.158Z,11.86
2023-06-17T03:36:06.194Z,11.94
2023-06-17T03:37:06.150Z,12.09
2023-06-17T03:38:06.135Z,12.03
2023-06-17T03:39:06.147Z,11.91
2023-06-17T03:40:06.132Z,12.00
2023-06-17T03:41:06.137Z,12.04
2023-06-17T03:42:06.107Z,12.22
2023-06-17T03:43:06.122Z,12.61
2023-06-17T03:44:06.096Z,12.75
2023-06-17T03:45:06.126Z,13.12
2023-06-17T03:46:06.103Z,13.33
2023-06-17T03:47:06.077Z,13.59
2023-06-17T03:48:06.078Z,13.50
2023-06-17T03:49:06.043Z,13.38
2023-06-17T03:50:06.073Z,12.95
2023-06-17T03:51:06.038Z,12.82
2023-06-17T03:52:06.035Z,12.60
2023-06-17T03:53:06.021Z,12.42
2023-06-17T03:54:06.041Z,12.57
2023-06-17T03:55:06.049Z,12.70
2023-06-17T03:56:05.994Z,12.78
2023-06-17T03:57:06.016Z,12.90
2023-06-17T03:58:05.987Z,13.05
2023-06-17T03:59:06.033Z,13.44
2023-06-17T04:00:05.997Z,13.68
2023-06-17T04:01:05.993Z,13.81
2023-06-17T04:02:06.077Z,14.10
2023-06-17T04:03:06.153Z,14.37
2023-06-17T04:04:06.071Z,14.73
2023-06-17T04:05:06.000Z,15.04
2023-06-17T04:06:06.011Z,15.29
2023-06-17T04:07:05.909Z,15.58
2023-06-17T04:08:06.012Z,15.64
2023-06-17T04:09:05.917Z,15.51
2023-06-17T04:10:07.594Z,15.61
2023-06-17T04:11:06.871Z,15.42
2023-06-17T04:12:05.870Z,15.47
2023-06-17T04:13:05.882Z,15.98
2023-06-17T04:14:05.856Z,16.51
2023-06-17T04:15:05.857Z,16.76
2023-06-17T04:16:05.835Z,17.02
2023-06-17T04:17:05.829Z,17.36
2023-06-17T04:18:05.896Z,17.56
2023-06-17T04:19:05.821Z,17.79
2023-06-17T04:20:05.807Z,18.20
2023-06-17T04:21:05.797Z,18.49
2023-06-17T04:22:05.814Z,18.62
2023-06-17T04:23:05.812Z,18.83
2023-06-17T04:24:05.822Z,18.83
2023-06-17T04:25:05.763Z,18.93
2023-06-17T04:26:05.764Z,19.04
2023-06-17T04:27:05.775Z,19.00
2023-06-17T04:28:05.740Z,19.14
2023-06-17T04:29:05.743Z,19.14
2023-06-17T04:30:05.734Z,19.16
2023-06-17T04:31:05.721Z,19.29
2023-06-17T04:32:05.724Z,19.48
2023-06-17T04:33:06.751Z,19.64
2023-06-17T04:34:05.699Z,19.76
2023-06-17T04:35:05.690Z,19.79
2023-06-17T04:36:05.708Z,19.86
2023-06-17T04:37:05.698Z,20.16
2023-06-17T04:38:05.666Z,20.24
2023-06-17T04:39:05.660Z,20.24
2023-06-17T04:40:05.655Z,20.34
2023-06-17T04:41:05.709Z,20.41
2023-06-17T04:42:05.635Z,20.39
2023-06-17T04:43:05.643Z,20.58
2023-06-17T04:44:05.617Z,20.63
2023-06-17T04:45:05.616Z,20.82
2023-06-17T04:46:05.620Z,20.87
2023-06-17T04:47:06.688Z,20.81
2023-06-17T04:48:05.638Z,20.95
2023-06-17T04:49:05.578Z,21.05
2023-06-17T04:50:05.600Z,21.29
2023-06-17T04:51:05.593Z,21.30
2023-06-17T04:52:05.558Z,21.36
2023-06-17T04:53:05.594Z,21.48
2023-06-17T04:54:05.539Z,21.46
2023-06-17T04:55:31.468Z,21.40
2023-06-17T04:56:05.534Z,21.61
2023-06-17T04:57:05.532Z,21.80
2023-06-17T04:58:05.540Z,21.75
2023-06-17T04:59:05.504Z,21.99
2023-06-17T05:00:05.523Z,21.99
2023-06-17T05:01:05.514Z,22.23
2023-06-17T05:02:05.489Z,22.38
2023-06-17T05:03:05.531Z,22.44
2023-06-17T05:04:05.569Z,22.53
2023-06-17T05:05:05.491Z,22.57
2023-06-17T05:06:05.445Z,22.57
2023-06-17T05:07:05.435Z,22.73
2023-06-17T05:08:06.428Z,22.87
2023-06-17T05:09:05.444Z,22.93
2023-06-17T05:10:05.440Z,23.03
2023-06-17T05:11:05.407Z,23.18
2023-06-17T05:12:05.403Z,23.17
2023-06-17T05:13:05.396Z,23.34
2023-06-17T05:14:05.412Z,23.48
2023-06-17T05:15:05.406Z,23.66
2023-06-17T05:16:05.373Z,23.76
2023-06-17T05:17:05.377Z,23.96
2023-06-17T05:18:05.429Z,23.92
2023-06-17T05:19:05.384Z,24.03
2023-06-17T05:20:05.341Z,24.16
2023-06-17T05:21:05.329Z,24.18
2023-06-17T05:22:05.373Z,24.36
2023-06-17T05:23:05.341Z,24.45
2023-06-17T05:24:05.361Z,24.53
2023-06-17T05:25:05.306Z,24.42
2023-06-17T05:26:05.292Z,24.45
2023-06-17T05:27:05.284Z,24.61
2023-06-17T05:28:05.304Z,24.76
2023-06-17T05:29:05.301Z,24.89
2023-06-17T05:30:05.259Z,24.89
2023-06-17T05:31:06.340Z,24.80
2023-06-17T05:32:05.250Z,24.74
2023-06-17T05:33:05.365Z,24.98
2023-06-17T05:34:05.234Z,25.04
2023-06-17T05:35:05.237Z,25.29
2023-06-17T05:36:05.222Z,25.53
2023-06-17T05:37:05.221Z,25.62
2023-06-17T05:38:05.244Z,25.80
2023-06-17T05:39:05.207Z,25.96
2023-06-17T05:40:05.208Z,26.10
2023-06-17T05:41:05.198Z,26.48
2023-06-17T05:42:05.211Z,26.56
2023-06-17T05:43:05.209Z,26.58
2023-06-17T05:44:05.172Z,26.78
2023-06-17T05:45:05.164Z,26.84
2023-06-17T05:46:05.221Z,26.89
2023-06-17T05:47:05.175Z,27.05
2023-06-17T05:48:05.226Z,27.37
2023-06-17T05:49:05.141Z,27.52
2023-06-17T05:50:05.145Z,27.47
2023-06-17T05:51:05.151Z,27.25
2023-06-17T05:52:05.142Z,27.07
2023-06-17T05:53:05.116Z,27.03
2023-06-17T05:54:05.129Z,26.93
2023-06-17T05:55:05.100Z,26.75
2023-06-17T05:56:05.123Z,26.75
2023-06-17T05:57:05.112Z,27.10
2023-06-17T05:58:05.086Z,27.07
2023-06-17T05:59:05.104Z,26.85
2023-06-17T06:00:05.084Z,26.74
2023-06-17T06:01:05.094Z,26.84
2023-06-17T06:02:05.145Z,26.95
2023-06-17T06:03:05.127Z,27.11
2023-06-17T06:04:05.076Z,27.45
2023-06-17T06:05:05.049Z,27.65
2023-06-17T06:06:05.063Z,27.60
2023-06-17T06:07:05.044Z,27.90
2023-06-17T06:08:05.032Z,27.85
2023-06-17T06:09:05.023Z,27.96
2023-06-17T06:10:05.060Z,28.17
2023-06-17T06:11:05.041Z,28.41
2023-06-17T06:12:05.004Z,28.29
2023-06-17T06:13:04.998Z,28.41
2023-06-17T06:14:04.993Z,28.32
2023-06-17T06:15:05.032Z,28.15
2023-06-17T06:16:05.040Z,27.95
2023-06-17T06:17:04.996Z,27.98
2023-06-17T06:18:05.030Z,28.27
2023-06-17T06:19:04.952Z,28.42
2023-06-17T06:20:04.973Z,28.66
2023-06-17T06:21:04.939Z,28.44
2023-06-17T06:22:04.934Z,28.38
2023-06-17T06:23:04.934Z,28.30
2023-06-17T06:24:04.985Z,28.45
2023-06-17T06:25:04.938Z,28.66
2023-06-17T06:26:04.920Z,28.82
2023-06-17T06:27:04.909Z,28.79
2023-06-17T06:28:04.907Z,28.67
2023-06-17T06:29:04.920Z,28.72
2023-06-17T06:30:04.892Z,28.69
2023-06-17T06:31:04.883Z,28.72
2023-06-17T06:32:04.885Z,29.01
2023-06-17T06:33:04.921Z,29.36
2023-06-17T06:34:04.905Z,29.49
2023-06-17T06:35:04.857Z,29.45
2023-06-17T06:36:04.848Z,29.51
2023-06-17T06:37:04.858Z,29.84
2023-06-17T06:38:04.873Z,30.09
2023-06-17T06:39:04.858Z,30.27
2023-06-17T06:40:04.830Z,30.40
2023-06-17T06:41:04.830Z,30.51
2023-06-17T06:42:04.814Z,30.43
2023-06-17T06:43:04.879Z,30.27
2023-06-17T06:44:04.807Z,30.61
2023-06-17T06:45:04.793Z,30.65
2023-06-17T06:46:04.860Z,30.51
2023-06-17T06:47:05.785Z,30.40
2023-06-17T06:48:04.853Z,30.09
2023-06-17T06:49:04.783Z,30.28
2023-06-17T06:50:04.776Z,30.28
2023-06-17T06:51:04.763Z,30.25
2023-06-17T06:52:04.750Z,30.25
2023-06-17T06:53:04.786Z,30.23
2023-06-17T06:54:04.767Z,30.27
2023-06-17T06:55:04.740Z,30.43
2023-06-17T06:56:04.736Z,30.69
2023-06-17T06:57:04.758Z,30.63
2023-06-17T06:58:04.744Z,30.83
2023-06-17T06:59:04.730Z,30.81
2023-06-17T07:00:04.710Z,30.85
2023-06-17T07:01:04.745Z,31.02
2023-06-17T07:02:04.718Z,31.14
2023-06-17T07:03:04.723Z,31.17
2023-06-17T07:04:04.684Z,30.92
2023-06-17T07:05:04.701Z,31.25
2023-06-17T07:06:04.682Z,31.18
2023-06-17T07:07:04.695Z,31.25
2023-06-17T07:08:04.664Z,31.40
2023-06-17T07:09:04.654Z,31.43
2023-06-17T07:10:04.666Z,31.52
2023-06-17T07:11:04.643Z,31.58
2023-06-17T07:12:04.671Z,31.58
2023-06-17T07:13:04.642Z,31.84
2023-06-17T07:14:04.659Z,31.77
2023-06-17T07:15:04.627Z,31.73
2023-06-17T07:16:04.645Z,32.15
2023-06-17T07:17:04.746Z,31.92
2023-06-17T07:18:04.677Z,31.65
2023-06-17T07:19:05.618Z,31.77
2023-06-17T07:20:04.595Z,31.74
2023-06-17T07:21:04.614Z,31.66
2023-06-17T07:22:04.588Z,31.70
2023-06-17T07:23:04.573Z,31.70
2023-06-17T07:24:04.618Z,31.65
2023-06-17T07:25:04.585Z,31.71
2023-06-17T07:26:04.582Z,31.85
2023-06-17T07:27:04.553Z,31.87
2023-06-17T07:28:04.553Z,31.74
2023-06-17T07:29:04.549Z,31.69
2023-06-17T07:30:04.558Z,31.59
2023-06-17T07:31:04.574Z,31.66
2023-06-17T07:32:04.556Z,31.76
2023-06-17T07:33:04.623Z,32.03
2023-06-17T07:34:04.520Z,32.04
2023-06-17T07:35:04.569Z,32.31
2023-06-17T07:36:04.517Z,32.37
2023-06-17T07:37:04.504Z,32.18
2023-06-17T07:38:04.487Z,32.04
2023-06-17T07:39:04.489Z,32.11
2023-06-17T07:40:05.503Z,32.19
2023-06-17T07:41:04.481Z,32.22
2023-06-17T07:42:04.469Z,32.38
2023-06-17T07:43:04.479Z,32.40
2023-06-17T07:44:04.487Z,32.55
2023-06-17T07:45:04.472Z,32.65
2023-06-17T07:46:06.089Z,32.68
2023-06-17T07:47:04.448Z,32.71
2023-06-17T07:48:04.491Z,33.02
2023-06-17T07:49:04.482Z,33.27
2023-06-17T07:50:04.419Z,33.22
2023-06-17T07:51:04.427Z,33.17
2023-06-17T07:52:04.415Z,33.42
2023-06-17T07:53:04.417Z,33.24
2023-06-17T07:54:04.430Z,33.07
2023-06-17T07:55:06.969Z,33.28
2023-06-17T07:56:05.391Z,33.42
2023-06-17T07:57:04.393Z,33.59
2023-06-17T07:58:04.385Z,33.81
2023-06-17T07:59:04.410Z,33.81
2023-06-17T08:00:04.368Z,33.81
2023-06-17T08:01:04.365Z,33.61
2023-06-17T08:02:05.539Z,33.45
2023-06-17T08:03:04.618Z,33.28
2023-06-17T08:04:04.454Z,33.28
2023-06-17T08:05:04.334Z,33.34
2023-06-17T08:06:04.343Z,33.50
2023-06-17T08:07:04.333Z,33.96
2023-06-17T08:08:04.344Z,34.18
2023-06-17T08:09:04.320Z,33.67
2023-06-17T08:10:06.016Z,33.53
2023-06-17T08:11:04.307Z,33.07
2023-06-17T08:12:04.334Z,33.02
2023-06-17T08:13:04.319Z,33.42
2023-06-17T08:14:04.290Z,33.27
2023-06-17T08:15:04.310Z,33.15
2023-06-17T08:16:04.303Z,33.57
2023-06-17T08:17:04.330Z,33.65
2023-06-17T08:18:04.352Z,33.89
2023-06-17T08:19:04.285Z,34.03
2023-06-17T08:20:04.257Z,33.67
2023-06-17T08:21:04.258Z,33.62
2023-06-17T08:22:04.263Z,33.14
2023-06-17T08:23:04.241Z,33.00
2023-06-17T08:24:04.259Z,33.05
2023-06-17T08:25:04.236Z,33.32
2023-06-17T08:26:04.245Z,33.69
2023-06-17T08:27:04.233Z,33.96
2023-06-17T08:28:04.215Z,34.06
2023-06-17T08:29:04.201Z,34.05
2023-06-17T08:30:04.200Z,33.71
2023-06-17T08:31:04.244Z,33.62
2023-06-17T08:32:04.185Z,33.83
2023-06-17T08:33:04.313Z,34.21
2023-06-17T08:34:04.191Z,33.95
2023-06-17T08:35:04.169Z,33.77
2023-06-17T08:36:04.196Z,33.53
2023-06-17T08:37:04.163Z,33.67
2023-06-17T08:38:04.155Z,33.74
2023-06-17T08:39:04.154Z,33.80
2023-06-17T08:40:04.149Z,33.73
2023-06-17T08:41:04.161Z,33.77
2023-06-17T08:42:04.134Z,33.71
2023-06-17T08:43:04.158Z,33.00
2023-06-17T08:44:04.118Z,32.92
2023-06-17T08:45:04.153Z,32.71
2023-06-17T08:46:04.176Z,33.00
2023-06-17T08:47:04.109Z,33.37
2023-06-17T08:48:04.143Z,33.81
2023-06-17T08:49:04.084Z,34.27
2023-06-17T08:50:04.141Z,34.43
2023-06-17T08:51:04.077Z,34.24
2023-06-17T08:52:04.068Z,34.01
2023-06-17T08:53:04.075Z,33.87
2023-06-17T08:54:04.063Z,33.71
2023-06-17T08:55:04.086Z,33.55
2023-06-17T08:56:04.058Z,33.19
2023-06-17T08:57:04.042Z,33.15
2023-06-17T08:58:04.080Z,33.47
2023-06-17T08:59:04.062Z,33.22
2023-06-17T09:00:04.067Z,33.15
2023-06-17T09:01:04.078Z,33.45
2023-06-17T09:02:04.022Z,33.67
2023-06-17T09:03:04.022Z,34.13
2023-06-17T09:04:04.029Z,34.13
2023-06-17T09:05:04.059Z,33.87
2023-06-17T09:06:03.990Z,33.57
2023-06-17T09:07:03.983Z,33.52
2023-06-17T09:08:03.974Z,33.83
2023-06-17T09:09:04.008Z,34.13
2023-06-17T09:10:03.988Z,34.24
2023-06-17T09:11:03.990Z,34.36
2023-06-17T09:12:03.955Z,34.35
2023-06-17T09:13:03.979Z,33.73
2023-06-17T09:14:04.004Z,33.00
2023-06-17T09:15:03.935Z,32.22
2023-06-17T09:16:03.932Z,31.36
2023-06-17T09:17:04.151Z,30.91
2023-06-17T09:18:03.975Z,30.32
2023-06-17T09:19:03.907Z,30.00
2023-06-17T09:20:03.912Z,30.12
2023-06-17T09:21:03.915Z,30.50
2023-06-17T09:22:03.910Z,30.63
2023-06-17T09:23:03.910Z,30.75
2023-06-17T09:24:04.017Z,30.53
2023-06-17T09:25:03.874Z,30.13
2023-06-17T09:26:03.879Z,29.73
2023-06-17T09:27:03.889Z,28.93
2023-06-17T09:28:16.293Z,28.51
2023-06-17T09:29:05.838Z,28.44
2023-06-17T09:30:03.848Z,27.93
2023-06-17T09:31:03.830Z,27.68
2023-06-17T09:32:03.840Z,28.00
2023-06-17T09:33:03.977Z,28.39
2023-06-17T09:34:03.824Z,28.88
2023-06-17T09:35:03.804Z,29.38
2023-06-17T09:36:03.811Z,29.39
2023-06-17T09:37:03.809Z,29.19
2023-06-17T09:38:04.691Z,29.08
2023-06-17T09:39:04.760Z,29.12
2023-06-17T09:40:03.755Z,29.23
2023-06-17T09:41:03.778Z,29.50
2023-06-17T09:42:03.768Z,29.68
2023-06-17T09:43:24.813Z,29.53
2023-06-17T09:44:05.732Z,29.54
2023-06-17T09:45:03.820Z,29.44
2023-06-17T09:46:03.778Z,29.24
2023-06-17T09:47:03.749Z,28.88
2023-06-17T09:48:03.732Z,28.84
2023-06-17T09:49:03.699Z,28.93
2023-06-17T09:50:03.696Z,29.16
2023-06-17T09:51:03.802Z,29.13
2023-06-17T09:52:03.696Z,29.20
2023-06-17T09:53:03.666Z,28.96
2023-06-17T09:54:03.658Z,29.02
2023-06-17T09:55:03.686Z,28.70
2023-06-17T09:56:03.666Z,28.69
2023-06-17T09:57:03.652Z,28.96
2023-06-17T09:58:03.626Z,29.19
2023-06-17T09:59:03.633Z,29.53
2023-06-17T10:00:03.645Z,29.72
2023-06-17T10:01:03.609Z,30.06
2023-06-17T10:02:03.610Z,30.21
2023-06-17T10:03:03.701Z,30.19
2023-06-17T10:04:03.682Z,30.47
2023-06-17T10:05:03.605Z,30.66
2023-06-17T10:06:03.583Z,30.66
2023-06-17T10:07:03.577Z,30.21
2023-06-17T10:08:03.559Z,29.82
2023-06-17T10:09:03.581Z,29.81
2023-06-17T10:10:03.562Z,29.94
2023-06-17T10:11:03.535Z,29.76
2023-06-17T10:12:03.536Z,29.68
2023-06-17T10:13:03.535Z,29.91
2023-06-17T10:14:03.537Z,30.13
2023-06-17T10:15:03.513Z,30.13
2023-06-17T10:16:03.507Z,30.18
2023-06-17T10:17:03.504Z,30.08
2023-06-17T10:18:03.549Z,29.88
2023-06-17T10:19:03.508Z,30.09
2023-06-17T10:20:03.479Z,30.18
2023-06-17T10:21:03.465Z,30.44
2023-06-17T10:22:03.459Z,30.35
2023-06-17T10:23:03.473Z,30.30
2023-06-17T10:24:03.517Z,30.31
2023-06-17T10:25:03.434Z,30.39
2023-06-17T10:26:03.429Z,30.61
2023-06-17T10:28:03.441Z,30.53
2023-06-17T10:29:03.491Z,30.68
2023-06-17T10:30:03.397Z,30.73
2023-06-17T10:31:03.583Z,30.44
2023-06-17T10:32:03.386Z,30.35
2023-06-17T10:33:03.515Z,30.65
2023-06-17T10:34:03.371Z,30.44
2023-06-17T10:35:03.371Z,30.39
2023-06-17T10:36:03.363Z,30.30
2023-06-17T10:37:03.377Z,30.40
2023-06-17T10:38:03.369Z,30.18
2023-06-17T10:39:03.341Z,29.91
2023-06-17T10:40:03.329Z,29.90
2023-06-17T10:41:03.326Z,29.98
2023-06-17T10:42:03.436Z,30.25
2023-06-17T10:43:03.312Z,30.13
2023-06-17T10:44:03.304Z,29.79
2023-06-17T10:45:03.287Z,30.05
2023-06-17T10:46:03.313Z,30.10
2023-06-17T10:47:03.309Z,30.10
2023-06-17T10:48:03.317Z,30.34
2023-06-17T10:49:03.262Z,30.37
2023-06-17T10:50:03.284Z,30.47
2023-06-17T10:51:03.296Z,30.55
2023-06-17T10:52:03.281Z,30.61
2023-06-17T10:53:03.236Z,30.61
2023-06-17T10:54:03.268Z,30.44
2023-06-17T10:55:03.241Z,30.35
2023-06-17T10:56:35.191Z,30.39
2023-06-17T10:57:03.229Z,30.81
2023-06-17T10:58:03.204Z,30.97
2023-06-17T10:59:03.199Z,31.22
2023-06-17T11:00:03.195Z,31.43
2023-06-17T11:01:03.218Z,31.59
2023-06-17T11:02:03.192Z,31.62
2023-06-17T11:03:03.223Z,31.77
2023-06-17T11:04:03.194Z,31.99
2023-06-17T11:05:03.214Z,32.07
2023-06-17T11:06:03.168Z,32.22
2023-06-17T11:07:03.139Z,32.31
2023-06-17T11:08:03.129Z,32.71
2023-06-17T11:09:03.124Z,32.46
2023-06-17T11:10:03.186Z,31.66
2023-06-17T11:11:03.118Z,31.66
2023-06-17T11:12:03.110Z,31.90
2023-06-17T11:13:03.097Z,32.04
2023-06-17T11:14:03.090Z,32.18
2023-06-17T11:15:03.105Z,32.29
2023-06-17T11:16:03.090Z,32.26
2023-06-17T11:17:03.119Z,32.36
2023-06-17T11:18:03.109Z,32.55
2023-06-17T11:19:03.090Z,32.37
2023-06-17T11:20:03.084Z,32.55
2023-06-17T11:21:03.039Z,32.48
2023-06-17T11:22:03.043Z,32.48
2023-06-17T11:23:03.022Z,32.41
2023-06-17T11:24:03.101Z,32.00
2023-06-17T11:25:03.028Z,31.05
2023-06-17T11:26:02.999Z,30.68
2023-06-17T11:27:03.012Z,30.73
2023-06-17T11:28:03.035Z,30.21
2023-06-17T11:29:03.000Z,30.23
2023-06-17T11:30:03.009Z,30.28
2023-06-17T11:31:02.985Z,30.53
2023-06-17T11:32:02.985Z,30.80
2023-06-17T11:33:02.968Z,31.18
2023-06-17T11:34:02.957Z,31.37
2023-06-17T11:35:02.927Z,31.59
2023-06-17T11:36:02.922Z,31.56
2023-06-17T11:37:02.930Z,31.66
2023-06-17T11:38:02.936Z,31.69
2023-06-17T11:39:02.944Z,31.37
2023-06-17T11:40:02.928Z,31.34
2023-06-17T11:41:02.888Z,30.87
2023-06-17T11:42:02.948Z,30.44
2023-06-17T11:43:02.908Z,30.08
2023-06-17T11:44:02.865Z,29.78
2023-06-17T11:45:02.864Z,29.24
2023-06-17T11:46:02.919Z,28.38
2023-06-17T11:47:02.865Z,28.35
2023-06-17T11:48:02.885Z,28.62
2023-06-17T11:49:02.835Z,28.78
2023-06-17T11:50:02.820Z,29.04
2023-06-17T11:51:02.880Z,29.35
2023-06-17T11:52:02.855Z,29.16
2023-06-17T11:53:02.806Z,29.26
2023-06-17T11:54:02.793Z,28.98
2023-06-17T11:55:02.794Z,28.96
2023-06-17T11:56:02.775Z,28.78
2023-06-17T11:57:02.797Z,28.79
2023-06-17T11:58:02.763Z,28.52
2023-06-17T11:59:02.752Z,28.07
2023-06-17T12:00:03.750Z,28.02
2023-06-17T12:01:02.763Z,28.17
2023-06-17T12:02:02.760Z,28.02
2023-06-17T12:03:02.726Z,27.87
2023-06-17T12:04:02.725Z,27.87
2023-06-17T12:05:02.715Z,28.20
2023-06-17T12:06:02.734Z,28.44
2023-06-17T12:07:02.698Z,28.44
2023-06-17T12:08:02.696Z,28.76
2023-06-17T12:09:02.683Z,28.98
2023-06-17T12:10:02.687Z,29.17
2023-06-17T12:11:02.687Z,29.59
2023-06-17T12:12:02.688Z,29.88
2023-06-17T12:13:02.646Z,30.02
2023-06-17T12:14:02.633Z,29.91
2023-06-17T12:15:14.151Z,29.90
2023-06-17T12:16:04.645Z,30.27
2023-06-17T12:17:02.616Z,30.69
2023-06-17T12:18:02.630Z,30.83
2023-06-17T12:19:02.618Z,30.73
2023-06-17T12:20:02.623Z,30.55
2023-06-17T12:21:02.607Z,30.65
2023-06-17T12:22:02.580Z,30.84
2023-06-17T12:23:02.569Z,30.92
2023-06-17T12:24:02.585Z,31.03
2023-06-17T12:25:02.583Z,31.34
2023-06-17T12:26:02.555Z,31.39
2023-06-17T12:27:02.546Z,31.27
2023-06-17T12:28:02.539Z,31.17
2023-06-17T12:29:08.382Z,31.00
2023-06-17T12:30:04.552Z,31.14
2023-06-17T12:31:02.517Z,31.09
2023-06-17T12:32:02.510Z,31.12
2023-06-17T12:33:02.540Z,31.46
2023-06-17T12:34:02.517Z,31.62
2023-06-17T12:35:02.515Z,31.61
2023-06-17T12:36:02.480Z,31.58
2023-06-17T12:37:02.482Z,31.73
2023-06-17T12:38:02.478Z,31.81
2023-06-17T12:39:02.489Z,31.99
2023-06-17T12:40:02.451Z,32.04
2023-06-17T12:41:02.446Z,32.07
2023-06-17T12:42:03.895Z,32.26
2023-06-17T12:43:02.432Z,32.19
2023-06-17T12:44:02.445Z,31.99
2023-06-17T12:45:02.420Z,31.51
2023-06-17T12:46:02.449Z,31.15
2023-06-17T12:47:02.398Z,31.20
2023-06-17T12:48:02.458Z,30.91
2023-06-17T12:49:02.420Z,30.63
2023-06-17T12:50:02.417Z,30.46
2023-06-17T12:51:02.371Z,30.35
2023-06-17T12:52:02.361Z,30.43
2023-06-17T12:53:02.383Z,30.32